world map with IXZ marked

IXZ - Airport

This information may not be accurate or current and is not valid for navigation or flight planning. No warranty of fitness for any purpose is made or implied.

flag of India

Donate via PayPal

Additional information is available on the NEW Great Circle Mapper

Location
City:  Port Blair, Andaman and Nicobar Islands, India
ICAO / IATA:VOPB / IXZ

Details
Type:Airport (Aerodrome, Airfield)
Latitude:11°38'28"N (11.641161)
Longitude:92°43'47"E (92.729744)
Datum:WGS 1984
Elevation:14 ft (4 m)
Runways:1
Longest:10795 × 148 ft (3290 × 45 m)

Time
Timezone:UTC+5:30 (DST+7:30)
Local Time:

Weather
METAR:VOPB  180300Z 06008KT 6000 FEW014 SCT018 29/23 Q1014 NOSIG
TAF:VOPB  (expired)

Related Locations
Nearby:
Farthest:SPYO: 11845 mi / 19062 km
Pacasmayo [Pacasmayo Airport], LAL, PE

Find:

   beyond  
but within

Other Information
Maps:
Sources:

  


 


Great Circle Mapper   Great Circle Mapper
Great Circle Mapper FAQ   Great Circle Mapper FAQ
  Karl's Home Page
KLSē   KLSē Home
   GC on Facebook
Airlines of the World   Airlines of the World
Donate via PayPal


Copyright © 2004-2017, Karl L. Swartz. All rights reserved.
All trademarks mentioned herein belong to their respective owners.

Please see credits for attribution and copyright information.

Karl Swartz <karl@kls2.com>
  Powered by FreeBSD
Valid HTML 4.01!
Labeled with ICRA
hCard Microformat
Geo Microformat